Time;durP1;ratioP1;P1;durP2;ratioP2;P2;SDS_P1;SDS_P2;PMS_P1;PMS_P2;Temp;Humidity;BMP_temperature;BMP_pressure;BME280_temperature;BME280_humidity;BME280_pressure;Samples;Min_cycle;Max_cycle;Signal;HPM_P1;HPM_P2
2022/02/25 00:02:19;;;;;;;4.03;1.20;;;;;;;;;;4871786;29;20036;-85
2022/02/25 00:04:45;;;;;;;5.82;1.20;;;;;;;;;;4871385;29;20021;-90
2022/02/25 00:07:10;;;;;;;3.80;0.93;;;;;;;;;;4874571;29;20837;-84
2022/02/25 00:09:36;;;;;;;5.30;1.15;;;;;;;;;;4853956;29;20128;-90
2022/02/25 00:12:01;;;;;;;6.25;1.08;;;;;;;;;;4872151;29;20619;-85
2022/02/25 00:14:26;;;;;;;3.80;1.02;;;;;;;;;;4870846;29;20037;-91
2022/02/25 00:16:52;;;;;;;7.10;1.27;;;;;;;;;;4874406;29;20039;-85
2022/02/25 00:19:18;;;;;;;3.05;1.08;;;;;;;;;;4876232;29;20478;-84
2022/02/25 00:21:44;;;;;;;5.93;1.02;;;;;;;;;;4874668;29;20579;-91
2022/02/25 00:24:10;;;;;;;4.50;1.10;;;;;;;;;;4879182;29;20033;-91
2022/02/25 00:26:35;;;;;;;3.70;1.23;;;;;;;;;;4871892;29;20066;-90
2022/02/25 00:29:02;;;;;;;4.38;1.50;;;;;;;;;;4873414;29;20762;-84
2022/02/25 00:31:28;;;;;;;3.97;1.33;;;;;;;;;;4872041;29;20072;-92
2022/02/25 00:33:53;;;;;;;4.35;1.50;;;;;;;;;;4869782;29;20124;-90
2022/02/25 00:36:19;;;;;;;4.57;1.38;;;;;;;;;;4869737;29;20107;-86
2022/02/25 00:38:44;;;;;;;7.30;1.58;;;;;;;;;;4870247;29;20045;-86
2022/02/25 00:41:09;;;;;;;5.50;1.77;;;;;;;;;;4871893;29;20124;-85
2022/02/25 00:43:35;;;;;;;6.43;1.50;;;;;;;;;;4868949;29;20061;-86
2022/02/25 00:46:00;;;;;;;6.70;2.05;;;;;;;;;;4870442;29;20562;-84
2022/02/25 00:48:25;;;;;;;6.35;1.73;;;;;;;;;;4871882;29;20061;-84
2022/02/25 00:50:51;;;;;;;4.60;1.63;;;;;;;;;;4873114;29;20037;-92
2022/02/25 00:53:16;;;;;;;5.22;1.65;;;;;;;;;;4875000;29;20641;-90
2022/02/25 00:55:41;;;;;;;4.43;1.92;;;;;;;;;;4869580;29;20065;-91
2022/02/25 00:58:07;;;;;;;7.28;1.90;;;;;;;;;;4871131;29;20508;-88
2022/02/25 01:00:33;;;;;;;5.78;2.10;;;;;;;;;;4862530;29;20089;-84
2022/02/25 01:02:58;;;;;;;5.28;2.00;;;;;;;;;;4872535;29;20029;-90
2022/02/25 01:05:24;;;;;;;7.78;2.10;;;;;;;;;;4874811;29;20037;-90
2022/02/25 01:07:49;;;;;;;5.60;2.05;;;;;;;;;;4875196;29;20033;-92
2022/02/25 01:10:16;;;;;;;5.55;2.38;;;;;;;;;;4874397;29;20108;-85
2022/02/25 01:12:43;;;;;;;9.82;3.00;;;;;;;;;;4886013;29;20447;-90
2022/02/25 01:15:10;;;;;;;6.00;2.42;;;;;;;;;;4890802;29;20036;-90
2022/02/25 01:17:36;;;;;;;6.80;2.40;;;;;;;;;;4874638;29;20447;-84
2022/02/25 01:20:03;;;;;;;6.40;2.70;;;;;;;;;;4870926;29;20096;-90
2022/02/25 01:22:29;;;;;;;9.90;2.70;;;;;;;;;;4880512;29;20068;-85
2022/02/25 01:24:54;;;;;;;6.25;2.22;;;;;;;;;;4871466;29;20072;-84
2022/02/25 01:27:20;;;;;;;7.03;2.40;;;;;;;;;;4871792;29;20033;-90
2022/02/25 01:29:45;;;;;;;5.22;2.40;;;;;;;;;;4875582;29;20028;-90
2022/02/25 01:32:11;;;;;;;7.22;2.40;;;;;;;;;;4871798;29;20029;-84
2022/02/25 01:34:37;;;;;;;7.05;2.58;;;;;;;;;;4863684;29;20054;-89
2022/02/25 01:37:03;;;;;;;10.57;2.50;;;;;;;;;;4874328;29;20040;-85
2022/02/25 01:39:28;;;;;;;6.07;2.38;;;;;;;;;;4872497;29;20037;-92
2022/02/25 01:41:55;;;;;;;7.07;2.70;;;;;;;;;;4872404;29;20081;-84
2022/02/25 01:44:29;;;;;;;7.75;2.30;;;;;;;;;;4875758;29;20761;-84
2022/02/25 01:46:58;;;;;;;7.78;2.40;;;;;;;;;;4879925;29;20041;-84
2022/02/25 01:49:24;;;;;;;6.70;2.42;;;;;;;;;;4875639;29;20234;-91
2022/02/25 01:51:59;;;;;;;6.53;2.50;;;;;;;;;;4875734;29;20029;-83
2022/02/25 01:54:25;;;;;;;9.60;2.35;;;;;;;;;;4876195;29;20059;-92
2022/02/25 01:56:52;;;;;;;9.05;2.78;;;;;;;;;;4870725;29;20097;-84
2022/02/25 01:59:18;;;;;;;8.15;2.67;;;;;;;;;;4876582;29;20037;-83
2022/02/25 02:01:44;;;;;;;5.43;2.60;;;;;;;;;;4869861;29;20057;-84
2022/02/25 02:04:10;;;;;;;6.20;2.80;;;;;;;;;;4871550;29;20033;-92
2022/02/25 02:06:36;;;;;;;7.80;3.10;;;;;;;;;;4873849;29;20116;-84
2022/02/25 02:09:04;;;;;;;8.48;2.88;;;;;;;;;;4875501;29;20109;-89
2022/02/25 02:11:41;;;;;;;6.35;2.55;;;;;;;;;;4892369;29;20093;-84
2022/02/25 02:14:17;;;;;;;6.53;2.88;;;;;;;;;;4887049;29;20088;-84
2022/02/25 02:16:44;;;;;;;8.60;2.85;;;;;;;;;;4877928;29;20072;-92
2022/02/25 02:19:10;;;;;;;6.35;2.90;;;;;;;;;;4874858;29;20037;-86
2022/02/25 02:21:44;;;;;;;9.55;3.00;;;;;;;;;;4871401;29;20537;-83
2022/02/25 02:24:11;;;;;;;7.43;2.72;;;;;;;;;;4871190;29;20037;-84
2022/02/25 02:26:40;;;;;;;10.07;2.70;;;;;;;;;;4870937;29;20025;-83
2022/02/25 02:29:06;;;;;;;6.35;2.60;;;;;;;;;;4875617;29;20033;-92
2022/02/25 02:31:32;;;;;;;6.03;2.50;;;;;;;;;;4875112;29;20032;-83
2022/02/25 02:33:58;;;;;;;10.82;2.75;;;;;;;;;;4870970;29;20041;-84
2022/02/25 02:36:23;;;;;;;7.75;2.50;;;;;;;;;;4887077;29;20175;-85
2022/02/25 02:38:49;;;;;;;4.85;2.17;;;;;;;;;;4878461;29;20135;-84
2022/02/25 02:41:14;;;;;;;5.20;2.60;;;;;;;;;;4873345;29;20485;-84
2022/02/25 02:43:40;;;;;;;8.25;2.30;;;;;;;;;;4876354;29;20076;-92
2022/02/25 02:46:07;;;;;;;6.65;2.53;;;;;;;;;;4875329;29;20500;-92
2022/02/25 02:48:33;;;;;;;7.93;2.35;;;;;;;;;;4874714;29;20033;-91
2022/02/25 02:50:58;;;;;;;11.85;2.63;;;;;;;;;;4873566;29;20029;-91
2022/02/25 02:53:23;;;;;;;5.47;2.53;;;;;;;;;;4874695;29;20037;-84
2022/02/25 02:55:49;;;;;;;7.38;2.40;;;;;;;;;;4869331;29;20467;-91
2022/02/25 02:58:15;;;;;;;8.48;2.22;;;;;;;;;;4874179;29;20458;-91
2022/02/25 03:00:42;;;;;;;8.48;2.25;;;;;;;;;;4888691;29;20043;-83
2022/02/25 03:03:08;;;;;;;6.75;2.72;;;;;;;;;;4873352;29;20490;-90
2022/02/25 03:05:34;;;;;;;6.68;2.20;;;;;;;;;;4872907;29;20049;-89
2022/02/25 03:08:00;;;;;;;7.90;3.30;;;;;;;;;;4874624;29;20043;-85
2022/02/25 03:10:25;;;;;;;8.77;2.20;;;;;;;;;;4876250;29;20037;-90
2022/02/25 03:12:51;;;;;;;6.32;2.85;;;;;;;;;;4874742;29;20033;-92
2022/02/25 03:15:16;;;;;;;6.63;2.28;;;;;;;;;;4875313;29;20022;-91
2022/02/25 03:17:42;;;;;;;6.78;1.95;;;;;;;;;;4874079;29;20036;-91
2022/02/25 03:20:10;;;;;;;6.28;2.10;;;;;;;;;;4874615;29;20048;-84
2022/02/25 03:22:35;;;;;;;6.22;2.10;;;;;;;;;;4869881;29;20036;-86
2022/02/25 03:25:01;;;;;;;8.70;2.50;;;;;;;;;;4891046;29;20534;-85
2022/02/25 03:27:28;;;;;;;7.40;2.10;;;;;;;;;;4878002;29;20040;-84
2022/02/25 03:29:54;;;;;;;5.07;1.70;;;;;;;;;;4877408;29;20489;-90
2022/02/25 03:32:19;;;;;;;5.63;1.92;;;;;;;;;;4876911;29;20033;-91
2022/02/25 03:34:45;;;;;;;7.78;1.85;;;;;;;;;;4876558;29;20041;-90
2022/02/25 03:37:11;;;;;;;9.43;2.38;;;;;;;;;;4875832;29;20032;-85
2022/02/25 03:39:36;;;;;;;6.35;2.10;;;;;;;;;;4874457;29;20044;-93
2022/02/25 03:42:02;;;;;;;9.00;2.35;;;;;;;;;;4874576;29;20079;-89
2022/02/25 03:44:27;;;;;;;7.22;2.17;;;;;;;;;;4888391;29;20092;-84
2022/02/25 03:46:53;;;;;;;9.52;2.28;;;;;;;;;;4875962;29;20100;-84
2022/02/25 03:49:18;;;;;;;8.63;2.35;;;;;;;;;;4879933;29;20028;-91
2022/02/25 03:51:44;;;;;;;8.02;1.92;;;;;;;;;;4880627;29;20042;-85
2022/02/25 03:54:10;;;;;;;5.72;2.28;;;;;;;;;;4880791;29;20140;-83
2022/02/25 03:56:36;;;;;;;7.20;2.10;;;;;;;;;;4880422;29;20367;-91
2022/02/25 03:59:02;;;;;;;5.70;2.20;;;;;;;;;;4876483;29;20048;-89
2022/02/25 04:01:27;;;;;;;8.20;2.60;;;;;;;;;;4874935;29;20040;-84
2022/02/25 04:03:53;;;;;;;7.60;1.85;;;;;;;;;;4875007;29;20886;-91
2022/02/25 04:06:19;;;;;;;4.82;2.10;;;;;;;;;;4875946;29;20040;-84
2022/02/25 04:08:44;;;;;;;7.55;2.00;;;;;;;;;;4874155;29;20071;-89
2022/02/25 04:11:10;;;;;;;7.85;2.13;;;;;;;;;;4876032;29;20060;-85
2022/02/25 04:13:36;;;;;;;9.52;2.10;;;;;;;;;;4871884;29;20029;-91
2022/02/25 04:16:02;;;;;;;7.53;1.80;;;;;;;;;;4870946;29;20030;-89
2022/02/25 04:18:27;;;;;;;11.13;1.83;;;;;;;;;;4873637;29;20037;-91
2022/02/25 04:20:53;;;;;;;5.75;1.75;;;;;;;;;;4876498;29;20084;-83
2022/02/25 04:23:18;;;;;;;9.50;1.80;;;;;;;;;;4873072;29;20033;-88
2022/02/25 04:25:43;;;;;;;5.88;1.95;;;;;;;;;;4875626;29;20040;-83
2022/02/25 04:28:09;;;;;;;6.45;2.05;;;;;;;;;;4872168;29;20076;-90
2022/02/25 04:30:34;;;;;;;6.18;1.90;;;;;;;;;;4873817;29;20040;-83
2022/02/25 04:33:00;;;;;;;9.40;1.80;;;;;;;;;;4876696;29;20072;-90
2022/02/25 04:35:25;;;;;;;8.98;1.98;;;;;;;;;;4873192;29;20056;-83
2022/02/25 04:37:51;;;;;;;14.15;2.65;;;;;;;;;;4876512;29;20496;-92
2022/02/25 04:40:17;;;;;;;7.95;2.28;;;;;;;;;;4874288;29;20076;-91
2022/02/25 04:42:43;;;;;;;8.68;2.33;;;;;;;;;;4875357;29;20088;-83
2022/02/25 04:45:09;;;;;;;8.07;1.52;;;;;;;;;;4872883;29;20374;-82
2022/02/25 04:47:34;;;;;;;8.57;1.83;;;;;;;;;;4876554;29;20097;-83
2022/02/25 04:50:00;;;;;;;8.85;1.95;;;;;;;;;;4870830;29;20044;-90
2022/02/25 04:52:25;;;;;;;6.88;1.70;;;;;;;;;;4874828;29;20048;-84
2022/02/25 04:54:51;;;;;;;9.05;1.88;;;;;;;;;;4877497;29;20029;-92
2022/02/25 04:57:17;;;;;;;11.93;2.58;;;;;;;;;;4891344;29;20049;-91
2022/02/25 04:59:42;;;;;;;5.40;1.67;;;;;;;;;;4877190;29;20090;-92
2022/02/25 05:02:08;;;;;;;5.75;1.73;;;;;;;;;;4873194;29;20033;-85
2022/02/25 05:04:33;;;;;;;10.00;2.58;;;;;;;;;;4875740;29;20032;-84
2022/02/25 05:06:59;;;;;;;10.85;1.98;;;;;;;;;;4876214;29;20049;-84
2022/02/25 05:09:24;;;;;;;12.93;1.98;;;;;;;;;;4877194;29;20077;-83
2022/02/25 05:11:49;;;;;;;6.93;1.55;;;;;;;;;;4880068;29;20037;-92
2022/02/25 05:22:27;;;;;;;9.70;2.20;;;;;;;;;;4877588;29;20077;-83
2022/02/25 05:24:52;;;;;;;7.43;2.00;;;;;;;;;;4889024;29;20040;-83
2022/02/25 05:27:17;;;;;;;8.65;2.03;;;;;;;;;;4876622;29;20125;-91
2022/02/25 05:29:43;;;;;;;7.22;1.73;;;;;;;;;;4874616;29;20060;-85
2022/02/25 05:32:08;;;;;;;9.15;1.63;;;;;;;;;;4875263;29;20715;-89
2022/02/25 05:34:34;;;;;;;11.77;2.47;;;;;;;;;;4884751;29;20053;-89
2022/02/25 05:36:59;;;;;;;9.10;2.08;;;;;;;;;;4877302;29;20386;-91
2022/02/25 05:39:25;;;;;;;10.68;2.05;;;;;;;;;;4875148;29;20047;-84
2022/02/25 05:41:50;;;;;;;9.65;2.22;;;;;;;;;;4874369;29;20040;-83
2022/02/25 05:44:16;;;;;;;10.50;1.83;;;;;;;;;;4875761;29;20076;-91
2022/02/25 05:46:41;;;;;;;12.40;1.92;;;;;;;;;;4877471;29;20160;-84
2022/02/25 05:49:07;;;;;;;8.40;1.85;;;;;;;;;;4875742;29;20470;-90
2022/02/25 05:51:32;;;;;;;11.35;2.05;;;;;;;;;;4878316;29;20182;-90
2022/02/25 05:53:57;;;;;;;10.90;1.70;;;;;;;;;;4876652;29;20045;-83
2022/02/25 05:56:24;;;;;;;6.47;1.52;;;;;;;;;;4873124;29;20024;-83
2022/02/25 05:58:49;;;;;;;9.57;1.75;;;;;;;;;;4875492;29;20466;-83
2022/02/25 06:01:15;;;;;;;8.30;1.80;;;;;;;;;;4873205;29;20025;-85
2022/02/25 06:03:40;;;;;;;12.75;2.08;;;;;;;;;;4874663;29;20045;-84
2022/02/25 06:06:05;;;;;;;9.75;2.08;;;;;;;;;;4877696;29;20021;-83
2022/02/25 06:08:31;;;;;;;8.23;2.00;;;;;;;;;;4872388;29;20033;-90
2022/02/25 06:10:57;;;;;;;10.48;2.05;;;;;;;;;;4874778;29;20491;-86
2022/02/25 06:13:23;;;;;;;6.57;1.70;;;;;;;;;;4873505;29;20021;-84
2022/02/25 06:15:48;;;;;;;8.07;2.20;;;;;;;;;;4874904;29;20037;-84
2022/02/25 06:18:13;;;;;;;11.07;2.38;;;;;;;;;;4879203;29;20039;-82
2022/02/25 06:20:39;;;;;;;11.35;2.20;;;;;;;;;;4873879;29;20037;-82
2022/02/25 06:23:05;;;;;;;10.32;2.55;;;;;;;;;;4874429;29;20065;-83
2022/02/25 06:25:31;;;;;;;10.43;2.00;;;;;;;;;;4875416;29;20067;-83
2022/02/25 06:27:57;;;;;;;11.38;2.97;;;;;;;;;;4871649;29;20048;-90
2022/02/25 06:30:22;;;;;;;10.02;2.28;;;;;;;;;;4887456;29;20096;-89
2022/02/25 06:32:47;;;;;;;9.95;2.15;;;;;;;;;;4869823;29;20029;-91
2022/02/25 06:35:13;;;;;;;9.60;2.33;;;;;;;;;;4871690;29;20056;-90
2022/02/25 06:37:40;;;;;;;7.53;1.83;;;;;;;;;;4872291;29;20044;-86
2022/02/25 06:40:07;;;;;;;12.63;2.00;;;;;;;;;;4886113;29;20037;-82
2022/02/25 06:42:32;;;;;;;8.00;1.90;;;;;;;;;;4876110;29;20487;-82
2022/02/25 06:44:57;;;;;;;9.23;2.35;;;;;;;;;;4874533;29;20049;-82
2022/02/25 06:47:23;;;;;;;9.65;1.85;;;;;;;;;;4893427;29;20056;-91
2022/02/25 06:49:48;;;;;;;10.63;2.33;;;;;;;;;;4879335;29;20032;-84
2022/02/25 06:52:13;;;;;;;9.75;2.10;;;;;;;;;;4877265;29;20032;-82
2022/02/25 06:54:39;;;;;;;6.95;1.55;;;;;;;;;;4877471;29;20040;-87
2022/02/25 06:57:04;;;;;;;13.70;2.30;;;;;;;;;;4878911;29;20066;-90
2022/02/25 06:59:30;;;;;;;15.55;2.35;;;;;;;;;;4875433;29;20043;-82
2022/02/25 07:01:55;;;;;;;11.93;2.47;;;;;;;;;;4877579;29;20061;-92
2022/02/25 07:04:20;;;;;;;7.75;1.77;;;;;;;;;;4879762;29;20116;-91
2022/02/25 07:06:48;;;;;;;9.48;1.95;;;;;;;;;;4880831;29;20163;-83
2022/02/25 07:09:15;;;;;;;12.95;3.10;;;;;;;;;;4876450;29;20033;-90
2022/02/25 07:11:40;;;;;;;11.85;2.03;;;;;;;;;;4878577;29;20032;-83
2022/02/25 07:14:05;;;;;;;7.85;1.80;;;;;;;;;;4880102;29;20087;-83
2022/02/25 07:16:31;;;;;;;15.35;2.03;;;;;;;;;;4880963;29;20081;-92
2022/02/25 07:18:56;;;;;;;8.60;1.80;;;;;;;;;;4892067;29;20040;-91
2022/02/25 07:21:23;;;;;;;13.18;2.30;;;;;;;;;;4877958;29;20025;-83
2022/02/25 07:23:48;;;;;;;10.80;2.08;;;;;;;;;;4878900;29;20116;-90
2022/02/25 07:26:15;;;;;;;12.68;1.92;;;;;;;;;;4880310;29;20474;-83
2022/02/25 07:28:40;;;;;;;12.32;1.63;;;;;;;;;;4892956;29;20487;-83
2022/02/25 07:31:06;;;;;;;11.45;2.10;;;;;;;;;;4879974;29;20084;-91
2022/02/25 07:33:31;;;;;;;8.80;1.92;;;;;;;;;;4862533;29;20136;-85
2022/02/25 07:35:58;;;;;;;7.85;1.90;;;;;;;;;;4893457;29;20052;-91
2022/02/25 07:38:24;;;;;;;12.27;2.15;;;;;;;;;;4882932;29;20502;-89
2022/02/25 07:40:49;;;;;;;11.45;2.10;;;;;;;;;;4896014;29;20044;-90
2022/02/25 07:43:18;;;;;;;10.50;2.00;;;;;;;;;;4879662;29;20112;-92
2022/02/25 07:45:46;;;;;;;12.13;1.83;;;;;;;;;;4887697;29;20137;-89
2022/02/25 07:48:11;;;;;;;10.20;1.88;;;;;;;;;;4884405;29;20028;-89
2022/02/25 07:50:37;;;;;;;9.65;1.90;;;;;;;;;;4886624;29;20089;-83
2022/02/25 07:53:02;;;;;;;9.82;2.05;;;;;;;;;;4885818;29;20037;-82
2022/02/25 07:55:28;;;;;;;13.75;2.00;;;;;;;;;;4877836;29;20037;-91
2022/02/25 07:57:53;;;;;;;15.07;2.13;;;;;;;;;;4880712;29;20029;-85
2022/02/25 08:00:19;;;;;;;13.20;2.45;;;;;;;;;;4882228;29;20164;-83
2022/02/25 08:02:44;;;;;;;11.13;1.92;;;;;;;;;;4881945;29;20033;-91
2022/02/25 08:05:10;;;;;;;8.95;1.95;;;;;;;;;;4877385;29;20029;-90
2022/02/25 08:07:35;;;;;;;13.48;1.80;;;;;;;;;;4888782;29;20028;-91
2022/02/25 08:10:01;;;;;;;9.48;1.77;;;;;;;;;;4878806;29;20446;-90
2022/02/25 08:12:39;;;;;;;12.20;2.20;;;;;;;;;;4877900;29;20033;-90
2022/02/25 08:15:25;;;;;;;11.35;1.95;;;;;;;;;;4882244;29;20042;-89
2022/02/25 08:17:51;;;;;;;9.27;1.42;;;;;;;;;;4858437;29;20108;-84
2022/02/25 08:20:19;;;;;;;11.98;2.08;;;;;;;;;;4874630;29;20025;-83
2022/02/25 08:22:48;;;;;;;12.30;1.85;;;;;;;;;;4887274;29;20031;-91
2022/02/25 08:25:19;;;;;;;14.55;1.85;;;;;;;;;;4886021;29;20549;-84
2022/02/25 08:27:50;;;;;;;9.38;2.05;;;;;;;;;;4886475;29;20033;-91
2022/02/25 08:30:15;;;;;;;8.10;1.80;;;;;;;;;;4880875;29;20076;-83
2022/02/25 08:32:42;;;;;;;13.48;2.00;;;;;;;;;;4877131;29;20057;-82
2022/02/25 08:35:19;;;;;;;15.77;2.28;;;;;;;;;;4877785;29;20048;-88
2022/02/25 08:37:46;;;;;;;13.18;1.95;;;;;;;;;;4883325;29;20025;-82
2022/02/25 08:40:14;;;;;;;13.40;2.30;;;;;;;;;;4882536;29;20065;-89
2022/02/25 08:42:39;;;;;;;16.75;1.80;;;;;;;;;;4883333;29;20028;-91
2022/02/25 08:45:06;;;;;;;7.63;1.80;;;;;;;;;;4886196;29;20025;-89
2022/02/25 08:47:32;;;;;;;13.80;2.30;;;;;;;;;;4882822;29;20615;-91
2022/02/25 08:49:57;;;;;;;11.52;2.03;;;;;;;;;;4880366;29;20028;-83
2022/02/25 08:52:23;;;;;;;17.48;2.42;;;;;;;;;;4886571;29;20025;-89
2022/02/25 08:54:50;;;;;;;11.77;2.40;;;;;;;;;;4879081;29;20112;-90
2022/02/25 08:57:16;;;;;;;11.93;2.22;;;;;;;;;;4896372;29;20028;-82
2022/02/25 08:59:42;;;;;;;11.63;1.90;;;;;;;;;;4885740;29;20040;-92
2022/02/25 09:02:08;;;;;;;14.57;2.00;;;;;;;;;;4886856;29;20029;-82
2022/02/25 09:04:34;;;;;;;10.23;2.00;;;;;;;;;;4887692;29;20035;-92
2022/02/25 09:06:59;;;;;;;10.40;2.50;;;;;;;;;;4885498;29;20060;-92
2022/02/25 09:09:25;;;;;;;9.02;2.17;;;;;;;;;;4885207;29;20446;-83
2022/02/25 09:11:50;;;;;;;13.88;2.35;;;;;;;;;;4876990;29;20549;-90
2022/02/25 09:14:16;;;;;;;12.73;2.15;;;;;;;;;;4878001;29;20035;-83
2022/02/25 09:16:41;;;;;;;13.57;2.25;;;;;;;;;;4876459;29;20025;-90
2022/02/25 09:19:07;;;;;;;15.45;2.45;;;;;;;;;;4880092;29;20108;-83
2022/02/25 09:21:33;;;;;;;14.00;2.67;;;;;;;;;;4878310;29;20100;-89
2022/02/25 09:23:59;;;;;;;15.23;2.10;;;;;;;;;;4880504;29;20033;-90
2022/02/25 09:26:24;;;;;;;21.30;2.58;;;;;;;;;;4881098;29;20035;-83
2022/02/25 09:28:49;;;;;;;8.48;1.73;;;;;;;;;;4891002;29;20040;-88
2022/02/25 09:31:15;;;;;;;9.52;1.88;;;;;;;;;;4873467;29;20025;-83
2022/02/25 09:33:40;;;;;;;9.68;2.10;;;;;;;;;;4877866;29;20032;-82
2022/02/25 09:36:08;;;;;;;15.30;2.10;;;;;;;;;;4880708;29;20049;-83
2022/02/25 09:38:34;;;;;;;14.68;2.45;;;;;;;;;;4886011;29;20057;-83
2022/02/25 09:41:00;;;;;;;13.23;2.53;;;;;;;;;;4879106;29;20499;-89
2022/02/25 09:43:26;;;;;;;11.85;2.25;;;;;;;;;;4878516;29;20036;-89
2022/02/25 09:45:52;;;;;;;9.13;1.98;;;;;;;;;;4870256;29;20033;-82
2022/02/25 09:48:21;;;;;;;16.17;2.47;;;;;;;;;;4875547;29;20182;-83
2022/02/25 09:50:51;;;;;;;9.98;1.70;;;;;;;;;;4868109;29;20037;-81
2022/02/25 09:53:17;;;;;;;11.70;2.10;;;;;;;;;;4875856;29;20033;-82
2022/02/25 09:55:43;;;;;;;9.07;2.10;;;;;;;;;;4879020;29;20043;-82
2022/02/25 09:58:08;;;;;;;15.32;2.38;;;;;;;;;;4876526;29;20033;-89
2022/02/25 10:00:35;;;;;;;9.10;2.08;;;;;;;;;;4878981;29;20140;-91
2022/02/25 10:03:07;;;;;;;9.35;2.08;;;;;;;;;;4878958;29;20041;-82
2022/02/25 10:05:34;;;;;;;11.07;1.83;;;;;;;;;;4878559;29;20028;-90
2022/02/25 10:08:25;;;;;;;10.40;2.30;;;;;;;;;;4873253;29;20028;-82
2022/02/25 10:10:53;;;;;;;7.28;1.70;;;;;;;;;;4878169;29;20494;-90
2022/02/25 10:13:21;;;;;;;13.63;2.00;;;;;;;;;;4880514;29;20036;-82
2022/02/25 10:15:50;;;;;;;17.23;2.75;;;;;;;;;;4880620;29;20048;-82
2022/02/25 10:18:22;;;;;;;8.65;2.05;;;;;;;;;;4880069;29;20039;-91
2022/02/25 10:20:48;;;;;;;11.20;1.98;;;;;;;;;;4878359;29;20386;-90
2022/02/25 10:23:29;;;;;;;13.90;2.22;;;;;;;;;;4878239;29;20062;-89
2022/02/25 10:26:05;;;;;;;12.90;2.35;;;;;;;;;;4880650;29;20048;-89
2022/02/25 10:28:33;;;;;;;12.13;2.35;;;;;;;;;;4879107;29;20212;-88
2022/02/25 10:31:29;;;;;;;11.38;2.10;;;;;;;;;;4879996;29;20057;-88
2022/02/25 10:34:11;;;;;;;8.82;1.60;;;;;;;;;;4872935;29;20139;-82
2022/02/25 10:36:53;;;;;;;10.32;1.65;;;;;;;;;;4884045;29;20037;-82
2022/02/25 10:39:24;;;;;;;8.20;1.93;;;;;;;;;;4886188;29;20111;-88
2022/02/25 10:42:03;;;;;;;7.20;1.60;;;;;;;;;;4880442;29;20065;-83
2022/02/25 10:44:57;;;;;;;11.32;2.10;;;;;;;;;;4889984;29;20033;-82
2022/02/25 10:47:28;;;;;;;11.82;2.40;;;;;;;;;;4878562;29;20029;-90
2022/02/25 10:50:06;;;;;;;8.38;2.10;;;;;;;;;;4887893;29;20509;-82
2022/02/25 10:52:37;;;;;;;11.30;1.92;;;;;;;;;;4891973;29;20036;-92
2022/02/25 10:55:06;;;;;;;13.93;2.00;;;;;;;;;;4878641;29;20029;-91
2022/02/25 10:57:35;;;;;;;15.43;2.15;;;;;;;;;;4879344;29;20044;-89
2022/02/25 11:00:01;;;;;;;10.40;1.77;;;;;;;;;;4870783;29;20033;-90
2022/02/25 11:02:30;;;;;;;5.65;1.75;;;;;;;;;;4885758;29;20024;-90
2022/02/25 11:05:00;;;;;;;11.55;2.05;;;;;;;;;;4880571;29;20030;-83
2022/02/25 11:07:29;;;;;;;13.55;2.30;;;;;;;;;;4888252;29;20040;-82
2022/02/25 11:09:55;;;;;;;9.65;1.90;;;;;;;;;;4876496;29;20041;-88
2022/02/25 11:12:20;;;;;;;8.40;1.55;;;;;;;;;;4890964;29;20418;-90
2022/02/25 11:14:47;;;;;;;10.77;2.25;;;;;;;;;;4872607;29;20041;-85
2022/02/25 11:17:13;;;;;;;10.57;2.03;;;;;;;;;;4879240;29;20077;-91
2022/02/25 11:19:40;;;;;;;12.18;3.10;;;;;;;;;;4879746;29;20068;-89
2022/02/25 11:22:07;;;;;;;13.98;2.08;;;;;;;;;;4874973;29;20049;-82
2022/02/25 11:24:37;;;;;;;14.10;2.25;;;;;;;;;;4889031;29;21511;-89
2022/02/25 11:27:04;;;;;;;15.10;2.55;;;;;;;;;;4878968;29;20081;-82
2022/02/25 11:29:32;;;;;;;13.48;2.40;;;;;;;;;;4879529;29;20486;-89
2022/02/25 11:32:01;;;;;;;14.75;2.72;;;;;;;;;;4880129;29;20132;-82
2022/02/25 11:34:27;;;;;;;9.90;1.95;;;;;;;;;;4883079;29;20131;-91
2022/02/25 11:36:52;;;;;;;13.35;2.08;;;;;;;;;;4881347;29;20139;-90
2022/02/25 11:39:27;;;;;;;9.07;1.88;;;;;;;;;;4885396;29;20125;-82
2022/02/25 11:41:54;;;;;;;9.30;1.92;;;;;;;;;;4884542;29;20032;-92
2022/02/25 11:44:20;;;;;;;6.82;1.67;;;;;;;;;;4883137;29;20079;-82
2022/02/25 11:46:45;;;;;;;7.60;1.25;;;;;;;;;;4880897;29;20049;-90
2022/02/25 11:49:11;;;;;;;12.15;1.60;;;;;;;;;;4886753;29;20095;-89
2022/02/25 11:51:43;;;;;;;6.88;1.45;;;;;;;;;;4888005;29;20032;-90
2022/02/25 11:54:21;;;;;;;4.45;1.42;;;;;;;;;;4884714;29;20024;-82
2022/02/25 11:57:05;;;;;;;5.72;1.10;;;;;;;;;;4875806;29;20786;-82
2022/02/25 11:59:39;;;;;;;8.35;1.10;;;;;;;;;;4885622;29;20036;-82
2022/02/25 12:02:10;;;;;;;11.32;1.58;;;;;;;;;;4890193;29;20491;-82
2022/02/25 12:04:39;;;;;;;9.15;1.98;;;;;;;;;;4879220;29;20040;-89
2022/02/25 12:07:13;;;;;;;12.57;2.40;;;;;;;;;;4883431;29;20112;-89
2022/02/25 12:09:55;;;;;;;7.13;1.85;;;;;;;;;;4883667;29;20356;-82
2022/02/25 12:12:26;;;;;;;10.43;2.17;;;;;;;;;;4884505;29;20486;-82
2022/02/25 12:15:08;;;;;;;9.48;1.75;;;;;;;;;;4879599;29;20495;-88
2022/02/25 12:17:55;;;;;;;9.88;1.70;;;;;;;;;;4883265;29;20028;-81
2022/02/25 12:20:26;;;;;;;10.80;1.98;;;;;;;;;;4875286;29;20371;-82
2022/02/25 12:22:53;;;;;;;14.15;2.17;;;;;;;;;;4886181;29;20119;-89
2022/02/25 12:25:40;;;;;;;9.13;1.60;;;;;;;;;;4881494;29;20036;-88
2022/02/25 12:28:06;;;;;;;9.07;1.88;;;;;;;;;;4882877;29;20084;-90
2022/02/25 12:30:39;;;;;;;8.50;1.40;;;;;;;;;;4880075;29;20033;-82
2022/02/25 12:33:32;;;;;;;9.30;1.80;;;;;;;;;;4881565;29;20499;-89
2022/02/25 12:35:59;;;;;;;9.65;1.63;;;;;;;;;;4880960;29;20073;-82
2022/02/25 12:38:26;;;;;;;6.72;1.30;;;;;;;;;;4892020;29;20044;-83
2022/02/25 12:40:53;;;;;;;9.82;2.47;;;;;;;;;;4881750;29;20055;-84
2022/02/25 12:43:19;;;;;;;12.63;1.83;;;;;;;;;;4883685;29;20025;-82
2022/02/25 12:45:45;;;;;;;6.38;1.50;;;;;;;;;;4879650;29;20494;-82
2022/02/25 12:48:11;;;;;;;9.40;2.15;;;;;;;;;;4877492;29;20148;-90
2022/02/25 12:50:43;;;;;;;12.77;1.50;;;;;;;;;;4895006;29;20125;-90
2022/02/25 12:53:09;;;;;;;11.18;1.80;;;;;;;;;;4876093;29;20037;-82
2022/02/25 12:55:34;;;;;;;9.65;1.50;;;;;;;;;;4896063;29;20040;-91
2022/02/25 12:58:00;;;;;;;10.15;1.70;;;;;;;;;;4876653;29;20033;-82
2022/02/25 13:00:26;;;;;;;9.02;1.75;;;;;;;;;;4879512;29;20064;-88
2022/02/25 13:02:55;;;;;;;14.60;2.08;;;;;;;;;;4879660;29;20714;-88
2022/02/25 13:05:21;;;;;;;6.93;1.35;;;;;;;;;;4879443;29;20040;-83
2022/02/25 13:07:57;;;;;;;9.50;1.60;;;;;;;;;;4888980;29;20123;-90
2022/02/25 13:10:24;;;;;;;8.65;1.40;;;;;;;;;;4872528;29;20044;-89
2022/02/25 13:12:50;;;;;;;7.78;1.40;;;;;;;;;;4879525;29;20029;-82
2022/02/25 13:15:16;;;;;;;6.78;1.60;;;;;;;;;;4880962;29;20037;-82
2022/02/25 13:17:41;;;;;;;6.80;1.58;;;;;;;;;;4877691;29;20029;-82
2022/02/25 13:20:10;;;;;;;8.65;1.98;;;;;;;;;;4883709;29;20028;-88
2022/02/25 13:22:38;;;;;;;12.57;1.60;;;;;;;;;;4896252;29;20058;-83
2022/02/25 13:25:16;;;;;;;8.65;2.00;;;;;;;;;;4876812;29;20043;-82
2022/02/25 13:27:48;;;;;;;12.80;2.00;;;;;;;;;;4883737;29;20566;-89
2022/02/25 13:30:20;;;;;;;12.13;1.80;;;;;;;;;;4870880;29;20033;-91
2022/02/25 13:32:51;;;;;;;12.80;2.00;;;;;;;;;;4892563;29;20482;-82
2022/02/25 13:35:19;;;;;;;10.80;1.80;;;;;;;;;;4882238;29;20049;-81
2022/02/25 13:37:58;;;;;;;11.40;1.60;;;;;;;;;;4878801;29;20455;-84
2022/02/25 13:40:28;;;;;;;15.13;2.10;;;;;;;;;;4882753;29;20040;-83
2022/02/25 13:42:54;;;;;;;7.57;1.38;;;;;;;;;;4883686;29;20055;-90
2022/02/25 13:45:34;;;;;;;13.82;1.77;;;;;;;;;;4878437;29;20485;-82
2022/02/25 13:53:42;;;;;;;12.70;1.80;;;;;;;;;;4854647;29;20415;-82
2022/02/25 13:56:08;;;;;;;10.55;1.80;;;;;;;;;;4881884;29;20025;-82
2022/02/25 13:58:34;;;;;;;10.93;1.95;;;;;;;;;;4885103;29;20107;-83
2022/02/25 14:00:59;;;;;;;13.48;2.00;;;;;;;;;;4869187;29;20025;-82
2022/02/25 14:03:36;;;;;;;14.25;1.70;;;;;;;;;;4874017;29;20057;-82
2022/02/25 14:06:01;;;;;;;12.45;1.77;;;;;;;;;;4882088;29;20059;-82
2022/02/25 14:08:28;;;;;;;10.10;1.58;;;;;;;;;;4881211;29;20044;-90
2022/02/25 14:10:54;;;;;;;10.80;1.80;;;;;;;;;;4879468;29;20084;-91
2022/02/25 14:13:29;;;;;;;11.90;1.80;;;;;;;;;;4875107;29;20040;-90
2022/02/25 14:15:56;;;;;;;10.32;1.80;;;;;;;;;;4873831;29;20029;-91
2022/02/25 14:18:26;;;;;;;16.08;1.88;;;;;;;;;;4877404;29;20096;-88
2022/02/25 14:20:53;;;;;;;12.57;1.90;;;;;;;;;;4885938;29;20032;-82
2022/02/25 14:23:18;;;;;;;13.30;1.88;;;;;;;;;;4888475;29;20032;-87
2022/02/25 14:25:47;;;;;;;12.48;1.90;;;;;;;;;;4877037;29;20144;-88
2022/02/25 14:28:14;;;;;;;16.98;1.85;;;;;;;;;;4882722;29;20037;-91
2022/02/25 14:30:42;;;;;;;10.02;1.50;;;;;;;;;;4886023;29;20036;-82
2022/02/25 14:33:13;;;;;;;9.68;2.00;;;;;;;;;;4885004;29;20490;-82
2022/02/25 14:35:41;;;;;;;9.18;1.35;;;;;;;;;;4871165;29;20451;-82
2022/02/25 14:38:07;;;;;;;10.73;1.40;;;;;;;;;;4878400;29;20033;-82
2022/02/25 14:40:33;;;;;;;13.35;1.40;;;;;;;;;;4882205;29;20025;-83
2022/02/25 14:42:58;;;;;;;8.77;1.77;;;;;;;;;;4887519;29;20092;-84
2022/02/25 14:45:25;;;;;;;10.65;1.30;;;;;;;;;;4878667;29;20025;-87
2022/02/25 14:47:51;;;;;;;6.07;0.80;;;;;;;;;;4866317;29;20058;-87
2022/02/25 14:50:17;;;;;;;6.20;0.75;;;;;;;;;;4874603;29;20465;-88
2022/02/25 14:52:43;;;;;;;3.50;0.63;;;;;;;;;;4884534;29;20120;-89
2022/02/25 14:55:09;;;;;;;4.90;0.63;;;;;;;;;;4883437;29;20103;-90